createdAt,value
2023-01-20T00:01:19.699Z,97683.84
2023-01-20T00:03:46.083Z,97683.03
2023-01-20T00:06:12.526Z,97687.59
2023-01-20T00:08:38.910Z,97692.97
2023-01-20T00:11:05.733Z,97690.31
2023-01-20T00:13:32.090Z,97684.72
2023-01-20T00:15:58.468Z,97691.41
2023-01-20T00:18:24.807Z,97696.72
2023-01-20T00:20:51.152Z,97702.91
2023-01-20T00:23:17.551Z,97702.09
2023-01-20T00:25:43.863Z,97702.69
2023-01-20T00:28:10.194Z,97710.16
2023-01-20T00:30:36.723Z,97713.09
2023-01-20T00:33:03.082Z,97712.84
2023-01-20T00:35:29.404Z,97712.59
2023-01-20T00:37:55.732Z,97720.09
2023-01-20T00:40:22.061Z,97724.09
2023-01-20T00:42:48.394Z,97722.00
2023-01-20T00:45:15.104Z,97725.72
2023-01-20T00:47:41.621Z,97737.47
2023-01-20T00:50:08.164Z,97733.75
2023-01-20T00:52:34.480Z,97735.13
2023-01-20T00:55:00.819Z,97739.13
2023-01-20T00:57:27.152Z,97734.88
2023-01-20T00:59:53.473Z,97733.28
2023-01-20T01:02:19.865Z,97740.19
2023-01-20T01:04:49.133Z,97741.81
2023-01-20T01:07:15.460Z,97749.03
2023-01-20T01:09:41.812Z,97748.22
2023-01-20T01:12:08.124Z,97748.72
2023-01-20T01:14:34.536Z,97743.97
2023-01-20T01:17:00.919Z,97755.69
2023-01-20T01:19:27.255Z,97761.28
2023-01-20T01:21:53.570Z,97770.34
2023-01-20T01:24:19.927Z,97769.81
2023-01-20T01:26:46.230Z,97769.84
2023-01-20T01:29:12.568Z,97775.47
2023-01-20T01:31:39.088Z,97778.16
2023-01-20T01:34:05.488Z,97770.44
2023-01-20T01:36:31.811Z,97777.88
2023-01-20T01:38:59.143Z,97778.47
2023-01-20T01:41:25.923Z,97785.91
2023-01-20T01:44:01.152Z,97782.72
2023-01-20T01:46:27.461Z,97784.06
2023-01-20T01:48:53.808Z,97790.75
2023-01-20T01:51:20.082Z,97788.31
2023-01-20T01:53:53.838Z,97788.88
2023-01-20T01:56:20.824Z,97789.94
2023-01-20T01:58:47.924Z,97787.25
2023-01-20T02:01:14.345Z,97780.31
2023-01-20T02:03:48.905Z,97779.25
2023-01-20T02:06:15.229Z,97780.31
2023-01-20T02:08:41.922Z,97781.94
2023-01-20T02:11:08.243Z,97791.25
2023-01-20T02:13:34.580Z,97787.00
2023-01-20T02:16:10.743Z,97789.13
2023-01-20T02:18:56.060Z,97791.00
2023-01-20T02:21:41.208Z,97795.81
2023-01-20T02:24:14.217Z,97796.09
2023-01-20T02:26:59.291Z,97792.09
2023-01-20T02:29:36.869Z,97787.03
2023-01-20T02:32:03.131Z,97799.81
2023-01-20T02:34:30.960Z,97796.63
2023-01-20T02:36:58.061Z,97798.75
2023-01-20T02:39:27.896Z,97807.81
2023-01-20T02:41:58.790Z,97806.22
2023-01-20T02:44:27.889Z,97800.34
2023-01-20T02:47:17.505Z,97806.25
2023-01-20T02:49:54.355Z,97804.91
2023-01-20T02:52:22.340Z,97811.03
2023-01-20T02:54:49.369Z,97813.97
2023-01-20T02:57:16.300Z,97815.28
2023-01-20T02:59:43.692Z,97813.19
2023-01-20T03:02:10.718Z,97814.25
2023-01-20T03:04:38.806Z,97818.75
2023-01-20T03:07:05.128Z,97820.13
2023-01-20T03:09:33.627Z,97818.53
2023-01-20T03:12:26.409Z,97820.38
2023-01-20T03:14:52.899Z,97825.94
2023-01-20T03:17:19.562Z,97830.47
2023-01-20T03:19:45.884Z,97837.16
2023-01-20T03:22:12.267Z,97837.94
2023-01-20T03:24:38.565Z,97840.06
2023-01-20T03:27:04.958Z,97846.41
2023-01-20T03:29:32.711Z,97842.97
2023-01-20T03:31:59.471Z,97849.88
2023-01-20T03:34:25.950Z,97849.34
2023-01-20T03:36:52.301Z,97853.09
2023-01-20T03:39:21.023Z,97857.63
2023-01-20T03:41:57.666Z,97851.22
2023-01-20T03:44:27.763Z,97861.06
2023-01-20T03:47:06.212Z,97861.31
2023-01-20T03:49:37.132Z,97867.44
2023-01-20T03:52:05.013Z,97873.03
2023-01-20T03:54:34.050Z,97868.22
2023-01-20T03:57:04.488Z,97861.88
2023-01-20T03:59:34.368Z,97868.78
2023-01-20T04:02:02.304Z,97871.44
2023-01-20T04:04:29.493Z,97878.88
2023-01-20T04:06:55.783Z,97873.03
2023-01-20T04:09:23.565Z,97882.09
2023-01-20T04:11:50.000Z,97884.19
2023-01-20T04:14:16.296Z,97881.00
2023-01-20T04:16:42.580Z,97885.53
2023-01-20T04:19:08.857Z,97880.72
2023-01-20T04:21:36.007Z,97881.53
2023-01-20T04:24:03.914Z,97876.47
2023-01-20T04:26:30.200Z,97877.28
2023-01-20T04:28:56.474Z,97881.81
2023-01-20T04:31:30.605Z,97890.84
2023-01-20T04:33:57.524Z,97892.97
2023-01-20T04:36:23.833Z,97889.78
2023-01-20T04:38:50.109Z,97899.88
2023-01-20T04:41:16.394Z,97908.41
2023-01-20T04:43:43.845Z,97905.97
2023-01-20T04:46:10.708Z,97889.78
2023-01-20T04:48:37.040Z,97906.25
2023-01-20T04:51:03.942Z,97908.63
2023-01-20T04:53:30.228Z,97910.25
2023-01-20T04:55:56.566Z,97916.63
2023-01-20T04:58:22.845Z,97911.56
2023-01-20T05:00:49.117Z,97911.56
2023-01-20T05:03:15.420Z,97917.16
2023-01-20T05:05:41.699Z,97915.56
2023-01-20T05:08:08.238Z,97910.25
2023-01-20T05:10:34.526Z,97919.28
2023-01-20T05:13:00.816Z,97920.34
2023-01-20T05:15:27.188Z,97918.75
2023-01-20T05:17:53.506Z,97923.53
2023-01-20T05:20:20.686Z,97925.91
2023-01-20T05:22:47.369Z,97925.66
2023-01-20T05:25:13.912Z,97930.97
2023-01-20T05:27:40.355Z,97935.19
2023-01-20T05:30:06.835Z,97935.19
2023-01-20T05:32:33.120Z,97941.31
2023-01-20T05:34:59.400Z,97941.59
2023-01-20T05:37:25.926Z,97944.25
2023-01-20T05:39:52.251Z,97941.03
2023-01-20T05:42:18.543Z,97942.09
2023-01-20T05:44:45.052Z,97942.09
2023-01-20T05:47:11.331Z,97948.22
2023-01-20T05:49:37.617Z,97946.63
2023-01-20T05:52:04.127Z,97948.75
2023-01-20T05:54:30.453Z,97952.72
2023-01-20T05:56:56.765Z,97954.56
2023-01-20T05:59:23.276Z,97952.72
2023-01-20T06:01:49.566Z,97950.84
2023-01-20T06:04:15.859Z,97951.66
2023-01-20T06:06:42.185Z,97964.94
2023-01-20T06:09:10.850Z,97963.06
2023-01-20T06:11:37.140Z,97963.34
2023-01-20T06:14:03.426Z,97964.41
2023-01-20T06:16:29.883Z,97968.94
2023-01-20T06:18:57.531Z,97970.25
2023-01-20T06:21:24.797Z,97967.59
2023-01-20T06:23:51.324Z,97965.47
2023-01-20T06:26:17.610Z,97977.41
2023-01-20T06:28:44.167Z,97976.59
2023-01-20T06:31:11.259Z,97984.03
2023-01-20T06:33:37.660Z,97979.25
2023-01-20T06:36:04.059Z,97972.59
2023-01-20T06:38:30.799Z,97981.38
2023-01-20T06:40:57.633Z,97982.44
2023-01-20T06:43:23.968Z,97990.41
2023-01-20T06:45:50.266Z,97992.25
2023-01-20T06:48:16.569Z,97994.13
2023-01-20T06:50:42.890Z,97995.72
2023-01-20T06:53:09.834Z,97993.06
2023-01-20T06:55:36.161Z,97997.34
2023-01-20T06:58:02.487Z,98001.59
2023-01-20T07:00:28.834Z,97997.88
2023-01-20T07:02:55.151Z,98004.78
2023-01-20T07:05:21.460Z,98008.50
2023-01-20T07:07:47.796Z,98009.84
2023-01-20T07:10:14.415Z,98019.41
2023-01-20T07:12:40.741Z,98031.63
2023-01-20T07:15:07.459Z,98024.72
2023-01-20T07:17:33.774Z,98029.25
2023-01-20T07:20:00.098Z,98032.41
2023-01-20T07:22:26.428Z,98035.84
2023-01-20T07:24:52.768Z,98037.19
2023-01-20T07:27:19.082Z,98047.25
2023-01-20T07:29:45.403Z,98046.97
2023-01-20T07:32:11.780Z,98053.09
2023-01-20T07:34:38.097Z,98059.47
2023-01-20T07:37:04.518Z,98062.66
2023-01-20T07:39:30.943Z,98063.44
2023-01-20T07:41:57.245Z,98062.31
2023-01-20T07:44:23.545Z,98069.50
2023-01-20T07:46:51.571Z,98075.94
2023-01-20T07:49:17.927Z,98082.16
2023-01-20T07:51:44.267Z,98092.00
2023-01-20T07:54:11.065Z,98084.63
2023-01-20T07:56:37.383Z,98081.97
2023-01-20T07:59:03.754Z,98081.97
2023-01-20T08:01:30.757Z,98091.84
2023-01-20T08:03:57.383Z,98099.63
2023-01-20T08:06:24.137Z,98100.19
2023-01-20T08:08:50.537Z,98104.44
2023-01-20T08:11:17.439Z,98107.38
2023-01-20T08:13:43.897Z,98106.03
2023-01-20T08:16:11.118Z,98107.06
2023-01-20T08:18:37.630Z,98109.16
2023-01-20T08:21:06.510Z,98112.69
2023-01-20T08:23:33.178Z,98111.06
2023-01-20T08:26:00.005Z,98121.47
2023-01-20T08:28:26.542Z,98121.47
2023-01-20T08:30:52.926Z,98126.81
2023-01-20T08:33:19.282Z,98125.22
2023-01-20T08:35:45.594Z,98129.75
2023-01-20T08:38:11.932Z,98132.63
2023-01-20T08:40:40.842Z,98139.81
2023-01-20T08:43:10.039Z,98131.81
2023-01-20T08:45:36.462Z,98139.81
2023-01-20T08:48:02.797Z,98140.88
2023-01-20T08:50:29.176Z,98143.75
2023-01-20T08:52:55.516Z,98141.94
2023-01-20T08:55:21.830Z,98139.59
2023-01-20T08:57:48.277Z,98138.31
2023-01-20T09:00:14.919Z,98142.34
2023-01-20T09:02:41.409Z,98142.84
2023-01-20T09:05:08.655Z,98150.31
2023-01-20T09:07:34.973Z,98147.38
2023-01-20T09:10:01.283Z,98147.94
2023-01-20T09:12:27.609Z,98150.59
2023-01-20T09:14:53.932Z,98156.16
2023-01-20T09:17:20.305Z,98156.44
2023-01-20T09:19:46.618Z,98160.16
2023-01-20T09:22:13.360Z,98156.16
2023-01-20T09:24:40.707Z,98163.06
2023-01-20T09:27:07.079Z,98166.00
2023-01-20T09:29:33.413Z,98174.25
2023-01-20T09:31:59.786Z,98171.59
2023-01-20T09:34:27.334Z,98171.03
2023-01-20T09:36:54.260Z,98180.34
2023-01-20T09:39:39.395Z,98183.75
2023-01-20T09:42:43.427Z,98182.97
2023-01-20T09:45:22.622Z,98187.69
2023-01-20T09:47:48.956Z,98188.22
2023-01-20T09:50:39.833Z,98195.38
2023-01-20T09:53:08.215Z,98193.25
2023-01-20T09:56:08.562Z,98192.69
2023-01-20T09:58:36.955Z,98198.53
2023-01-20T10:01:03.206Z,98196.13
2023-01-20T10:03:38.275Z,98198.25
2023-01-20T10:06:07.055Z,98200.09
2023-01-20T10:08:34.692Z,98196.09
2023-01-20T10:11:08.665Z,98207.53
2023-01-20T10:13:47.422Z,98204.31
2023-01-20T10:16:18.844Z,98212.03
2023-01-20T10:18:47.493Z,98207.53
2023-01-20T10:21:15.358Z,98207.53
2023-01-20T10:24:00.502Z,98205.66
2023-01-20T10:26:38.983Z,98208.59
2023-01-20T10:29:06.635Z,98212.03
2023-01-20T10:31:33.893Z,98207.00
2023-01-20T10:34:08.922Z,98214.97
2023-01-20T10:36:35.268Z,98208.06
2023-01-20T10:39:05.697Z,98211.75
2023-01-20T10:41:34.535Z,98214.41
2023-01-20T10:44:00.917Z,98215.47
2023-01-20T10:46:42.641Z,98211.75
2023-01-20T10:49:11.975Z,98220.00
2023-01-20T10:51:38.233Z,98219.19
2023-01-20T10:54:23.348Z,98226.09
2023-01-20T10:56:53.517Z,98233.00
2023-01-20T10:59:30.852Z,98231.16
2023-01-20T11:02:10.934Z,98233.81
2023-01-20T11:04:38.647Z,98244.72
2023-01-20T11:07:08.386Z,98238.06
2023-01-20T11:09:35.375Z,98234.59
2023-01-20T11:12:02.245Z,98235.63
2023-01-20T11:14:28.913Z,98236.72
2023-01-20T11:16:57.814Z,98238.56
2023-01-20T11:19:24.127Z,98240.97
2023-01-20T11:21:50.445Z,98235.44
2023-01-20T11:24:34.706Z,98245.84
2023-01-20T11:27:10.984Z,98233.13
2023-01-20T11:29:41.166Z,98240.34
2023-01-20T11:32:23.716Z,98248.34
2023-01-20T11:34:51.412Z,98248.66
2023-01-20T11:37:21.873Z,98255.19
2023-01-20T11:39:54.309Z,98254.44
2023-01-20T11:42:24.996Z,98260.59
2023-01-20T11:44:52.332Z,98273.19
2023-01-20T11:47:22.673Z,98269.22
2023-01-20T11:50:04.265Z,98272.94
2023-01-20T11:52:30.975Z,98276.16
2023-01-20T11:55:23.639Z,98273.22
2023-01-20T11:57:53.575Z,98276.94
2023-01-20T12:00:19.819Z,98282.28
2023-01-20T12:02:56.727Z,98282.28
2023-01-20T12:05:26.981Z,98283.94
2023-01-20T12:07:53.313Z,98286.88
2023-01-20T12:10:24.517Z,98294.91
2023-01-20T12:12:51.513Z,98287.44
2023-01-20T12:15:31.820Z,98288.78
2023-01-20T12:18:17.492Z,98291.97
2023-01-20T12:20:55.631Z,98298.59
2023-01-20T12:23:32.987Z,98302.81
2023-01-20T12:26:03.022Z,98304.66
2023-01-20T12:28:29.309Z,98308.38
2023-01-20T12:30:57.031Z,98308.59
2023-01-20T12:33:23.512Z,98311.25
2023-01-20T12:36:03.016Z,98307.28
2023-01-20T12:38:29.371Z,98321.66
2023-01-20T12:40:55.748Z,98322.22
2023-01-20T12:43:26.820Z,98320.13
2023-01-20T12:45:56.067Z,98324.09
2023-01-20T12:48:25.503Z,98326.47
2023-01-20T12:50:53.430Z,98322.50
2023-01-20T12:53:38.696Z,98327.00
2023-01-20T12:56:17.958Z,98333.63
2023-01-20T12:59:07.623Z,98335.22
2023-01-20T13:01:37.704Z,98335.75
2023-01-20T13:04:03.957Z,98337.63
2023-01-20T13:06:30.248Z,98333.59
2023-01-20T13:09:15.196Z,98333.06
2023-01-20T13:12:13.814Z,98332.78
2023-01-20T13:14:44.201Z,98331.19
2023-01-20T13:17:46.089Z,98336.25
2023-01-20T13:20:22.109Z,98338.13
2023-01-20T13:22:48.606Z,98346.13
2023-01-20T13:25:15.687Z,98353.31
2023-01-20T13:27:42.313Z,98352.47
2023-01-20T13:30:10.580Z,98353.00
2023-01-20T13:32:36.889Z,98358.81
2023-01-20T13:35:25.737Z,98358.78
2023-01-20T13:37:55.309Z,98359.84
2023-01-20T13:40:37.001Z,98361.44
2023-01-20T13:43:03.667Z,98361.13
2023-01-20T13:45:29.963Z,98368.06
2023-01-20T13:48:05.561Z,98370.41
2023-01-20T13:50:38.630Z,98375.75
2023-01-20T13:53:11.209Z,98372.84
2023-01-20T13:55:40.475Z,98375.56
2023-01-20T13:58:27.053Z,98384.16
2023-01-20T14:00:57.213Z,98391.13
2023-01-20T14:03:36.223Z,98393.31
2023-01-20T14:06:07.017Z,98398.44
2023-01-20T14:08:39.544Z,98395.44
2023-01-20T14:11:10.497Z,98396.47
2023-01-20T14:13:36.818Z,98401.78
2023-01-20T14:16:03.157Z,98401.28
2023-01-20T14:18:29.484Z,98401.81
2023-01-20T14:21:14.005Z,98407.69
2023-01-20T14:23:43.426Z,98409.81
2023-01-20T14:26:39.234Z,98405.84
2023-01-20T14:29:05.575Z,98413.03
2023-01-20T14:31:40.345Z,98417.25
2023-01-20T14:34:25.657Z,98420.19
2023-01-20T14:36:51.968Z,98426.00
2023-01-20T14:39:19.117Z,98421.16
2023-01-20T14:41:47.618Z,98432.09
2023-01-20T14:44:21.269Z,98435.25
2023-01-20T14:46:48.316Z,98440.03
2023-01-20T14:49:15.426Z,98441.63
2023-01-20T14:51:41.738Z,98443.97
2023-01-20T14:54:26.888Z,98448.47
2023-01-20T14:56:53.441Z,98443.63
2023-01-20T14:59:20.067Z,98455.63
2023-01-20T15:01:56.329Z,98458.31
2023-01-20T15:04:22.707Z,98459.44
2023-01-20T15:06:53.235Z,98457.13
2023-01-20T15:09:32.656Z,98452.63
2023-01-20T15:12:20.044Z,98461.44
2023-01-20T15:14:56.683Z,98464.13
2023-01-20T15:17:23.054Z,98471.31
2023-01-20T15:19:49.381Z,98479.81
2023-01-20T15:22:16.819Z,98482.47
2023-01-20T15:24:43.145Z,98488.38
2023-01-20T15:27:28.303Z,98489.19
2023-01-20T15:30:14.285Z,98491.38
2023-01-20T15:32:40.705Z,98496.69
2023-01-20T15:35:07.389Z,98503.06
2023-01-20T15:37:33.711Z,98507.03
2023-01-20T15:40:00.169Z,98517.41
2023-01-20T15:42:26.512Z,98531.25
2023-01-20T15:44:53.080Z,98519.50
2023-01-20T15:47:20.168Z,98531.16
2023-01-20T15:49:46.696Z,98528.75
2023-01-20T15:52:13.012Z,98529.81
2023-01-20T15:54:39.359Z,98538.59
2023-01-20T15:57:09.810Z,98543.91
2023-01-20T15:59:36.147Z,98548.69
2023-01-20T16:02:02.540Z,98549.69
2023-01-20T16:04:31.491Z,98561.09
2023-01-20T16:06:57.818Z,98567.75
2023-01-20T16:09:25.323Z,98564.53
2023-01-20T16:11:51.639Z,98569.31
2023-01-20T16:14:18.041Z,98572.28
2023-01-20T16:16:44.375Z,98581.16
2023-01-20T16:19:13.737Z,98582.31
2023-01-20T16:21:40.083Z,98585.00
2023-01-20T16:24:06.536Z,98582.53
2023-01-20T16:26:33.111Z,98589.72
2023-01-20T16:28:59.711Z,98606.81
2023-01-20T16:31:26.297Z,98601.78
2023-01-20T16:33:52.753Z,98603.44
2023-01-20T16:36:19.490Z,98604.41
2023-01-20T16:38:45.930Z,98610.31
2023-01-20T16:41:15.352Z,98613.94
2023-01-20T16:43:41.923Z,98620.63
2023-01-20T16:46:28.573Z,98636.84
2023-01-20T16:48:59.251Z,98632.81
2023-01-20T16:51:26.694Z,98636.22
2023-01-20T16:53:53.161Z,98626.09
2023-01-20T16:56:20.212Z,98638.31
2023-01-20T16:58:48.428Z,98639.38
2023-01-20T17:01:14.876Z,98645.81
2023-01-20T17:03:41.462Z,98651.69
2023-01-20T17:06:08.368Z,98653.81
2023-01-20T17:08:34.688Z,98661.00
2023-01-20T17:11:01.006Z,98656.69
2023-01-20T17:13:27.314Z,98663.56
2023-01-20T17:15:53.722Z,98671.28
2023-01-20T17:18:20.040Z,98674.69
2023-01-20T17:20:46.371Z,98672.78
2023-01-20T17:23:12.681Z,98677.25
2023-01-20T17:25:39.730Z,98679.03
2023-01-20T17:28:06.056Z,98680.41
2023-01-20T17:30:32.401Z,98688.78
2023-01-20T17:32:58.721Z,98694.69
2023-01-20T17:35:25.061Z,98684.59
2023-01-20T17:37:51.366Z,98695.03
2023-01-20T17:40:18.066Z,98707.59
2023-01-20T17:42:46.264Z,98708.66
2023-01-20T17:45:12.626Z,98715.06
2023-01-20T17:47:38.982Z,98713.44
2023-01-20T17:50:05.402Z,98721.94
2023-01-20T17:52:31.770Z,98722.44
2023-01-20T17:54:58.096Z,98729.31
2023-01-20T17:57:26.845Z,98723.19
2023-01-20T17:59:53.595Z,98734.63
2023-01-20T18:02:21.997Z,98735.75
2023-01-20T18:04:48.388Z,98740.31
2023-01-20T18:07:14.703Z,98749.38
2023-01-20T18:09:42.931Z,98750.19
2023-01-20T18:12:09.387Z,98755.75
2023-01-20T18:14:35.756Z,98761.31
2023-01-20T18:17:02.159Z,98760.47
2023-01-20T18:19:28.521Z,98759.13
2023-01-20T18:21:54.935Z,98765.47
2023-01-20T18:24:21.322Z,98770.00
2023-01-20T18:26:47.640Z,98768.88
2023-01-20T18:29:14.620Z,98773.13
2023-01-20T18:31:41.020Z,98768.28
2023-01-20T18:34:07.811Z,98772.97
2023-01-20T18:36:34.888Z,98782.81
2023-01-20T18:39:07.994Z,98781.22
2023-01-20T18:41:36.607Z,98784.25
2023-01-20T18:44:03.965Z,98784.06
2023-01-20T18:46:30.379Z,98781.44
2023-01-20T18:48:56.998Z,98792.72
2023-01-20T18:51:24.136Z,98798.13
2023-01-20T18:54:05.605Z,98800.78
2023-01-20T18:56:33.222Z,98801.03
2023-01-20T18:58:59.639Z,98804.19
2023-01-20T19:01:27.745Z,98797.75
2023-01-20T19:03:54.131Z,98807.28
2023-01-20T19:06:27.022Z,98809.13
2023-01-20T19:08:53.363Z,98808.41
2023-01-20T19:11:21.085Z,98811.13
2023-01-20T19:13:48.666Z,98818.63
2023-01-20T19:16:15.043Z,98821.03
2023-01-20T19:18:41.506Z,98823.47
2023-01-20T19:21:08.945Z,98828.22
2023-01-20T19:23:35.326Z,98839.13
2023-01-20T19:26:02.406Z,98837.53
2023-01-20T19:28:28.769Z,98841.72
2023-01-20T19:30:55.197Z,98833.44
2023-01-20T19:33:21.564Z,98839.56
2023-01-20T19:35:47.896Z,98841.66
2023-01-20T19:38:14.223Z,98845.69
2023-01-20T19:40:40.595Z,98847.00
2023-01-20T19:43:06.913Z,98843.28
2023-01-20T19:45:45.339Z,98849.28
2023-01-20T19:48:12.200Z,98858.09
2023-01-20T19:50:38.574Z,98861.09
2023-01-20T19:53:04.898Z,98863.34
2023-01-20T19:55:31.464Z,98866.22
2023-01-20T19:57:57.820Z,98865.34
2023-01-20T20:00:24.149Z,98868.50
2023-01-20T20:02:52.717Z,98867.63
2023-01-20T20:05:19.515Z,98868.34
2023-01-20T20:07:46.161Z,98867.13
2023-01-20T20:10:12.501Z,98880.59
2023-01-20T20:12:38.815Z,98876.69
2023-01-20T20:15:05.334Z,98878.59
2023-01-20T20:17:31.912Z,98885.84
2023-01-20T20:19:58.251Z,98884.56
2023-01-20T20:22:24.559Z,98879.53
2023-01-20T20:24:50.859Z,98882.53
2023-01-20T20:27:17.171Z,98897.56
2023-01-20T20:29:43.488Z,98889.56
2023-01-20T20:32:10.086Z,98899.19
2023-01-20T20:34:36.433Z,98901.59
2023-01-20T20:37:03.430Z,98901.59
2023-01-20T20:39:29.773Z,98901.31
2023-01-20T20:41:56.587Z,98908.84
2023-01-20T20:44:23.361Z,98912.25
2023-01-20T20:46:49.741Z,98918.16
2023-01-20T20:49:16.135Z,98922.41
2023-01-20T20:51:42.475Z,98926.13
2023-01-20T20:54:09.079Z,98925.06
2023-01-20T20:56:35.382Z,98926.38
2023-01-20T20:59:03.215Z,98928.50
2023-01-20T21:01:33.404Z,98935.44
2023-01-20T21:04:00.539Z,98936.72
2023-01-20T21:06:27.091Z,98939.66
2023-01-20T21:08:53.522Z,98938.28
2023-01-20T21:11:24.007Z,98945.78
2023-01-20T21:13:50.357Z,98947.72
2023-01-20T21:16:17.542Z,98951.47
2023-01-20T21:18:43.922Z,98940.78
2023-01-20T21:21:11.480Z,98952.78
2023-01-20T21:23:37.941Z,98957.56
2023-01-20T21:26:05.030Z,98960.47
2023-01-20T21:28:31.740Z,98960.22
2023-01-20T21:30:58.118Z,98968.00
2023-01-20T21:33:24.452Z,98962.91
2023-01-20T21:35:50.772Z,98966.66
2023-01-20T21:38:17.116Z,98970.63
2023-01-20T21:40:59.661Z,98969.28
2023-01-20T21:43:53.996Z,98974.91
2023-01-20T21:46:20.550Z,98978.91
2023-01-20T21:49:05.292Z,98982.97
2023-01-20T21:51:50.168Z,98983.50
2023-01-20T21:54:16.729Z,98980.28
2023-01-20T21:56:43.121Z,98985.28
2023-01-20T21:59:09.465Z,98994.00
2023-01-20T22:01:35.886Z,99004.41
2023-01-20T22:04:02.539Z,98998.50
2023-01-20T22:06:28.883Z,98999.03
2023-01-20T22:08:55.214Z,99007.28
2023-01-20T22:11:21.789Z,99011.50
2023-01-20T22:13:48.097Z,99012.56
2023-01-20T22:16:14.459Z,99021.69
2023-01-20T22:18:40.806Z,99020.59
2023-01-20T22:21:07.200Z,99021.56
2023-01-20T22:23:33.861Z,99021.00
2023-01-20T22:26:00.359Z,99021.56
2023-01-20T22:28:26.692Z,99030.38
2023-01-20T22:30:53.069Z,99027.41
2023-01-20T22:33:19.390Z,99031.00
2023-01-20T22:35:45.710Z,99034.66
2023-01-20T22:38:12.094Z,99034.09
2023-01-20T22:40:38.743Z,99041.53
2023-01-20T22:43:05.691Z,99042.06
2023-01-20T22:45:32.062Z,99042.06
2023-01-20T22:47:58.411Z,99045.25
2023-01-20T22:50:24.718Z,99047.44
2023-01-20T22:52:51.291Z,99055.44
2023-01-20T22:55:17.598Z,99065.31
2023-01-20T22:57:43.917Z,99060.47
2023-01-20T23:00:12.126Z,99057.81
2023-01-20T23:02:39.068Z,99065.25
2023-01-20T23:05:05.514Z,99062.81
2023-01-20T23:07:31.861Z,99062.78
2023-01-20T23:09:58.166Z,99070.72
2023-01-20T23:12:24.492Z,99066.66
2023-01-20T23:14:59.731Z,99063.69
2023-01-20T23:17:26.636Z,99075.66
2023-01-20T23:19:53.035Z,99087.63
2023-01-20T23:22:19.354Z,99083.03
2023-01-20T23:24:45.898Z,99090.47
2023-01-20T23:27:12.210Z,99094.69
2023-01-20T23:29:39.012Z,99095.44
2023-01-20T23:32:05.347Z,99091.94
2023-01-20T23:34:31.662Z,99094.88
2023-01-20T23:36:57.979Z,99100.19
2023-01-20T23:39:24.284Z,99104.72
2023-01-20T23:41:50.643Z,99104.72
2023-01-20T23:44:17.210Z,99111.91
2023-01-20T23:46:43.523Z,99119.91
2023-01-20T23:49:10.291Z,99118.53
2023-01-20T23:51:36.614Z,99120.66
2023-01-20T23:54:04.394Z,99123.00
2023-01-20T23:56:30.722Z,99124.06
2023-01-20T23:58:57.056Z,99128.00
